Portada
METAR-TAF:

METAR-TAF

Aeroports :

Txengdu, Xina

latitud: 30-40N, longitud: 104-01E, altitud: 508 m

Observació

L'informe es va fer fa 44 minuts, a les 18:00 UTC
Vent calma
Temperatura 22°C
Humitat 78%
Pressió 1005 hPa
Visibilitat: 5000 m
boirina

METAR: ZUUU 181800Z 00000MPS 5000 BR NSC 22/18 Q1005 NOSIG

Hora: 02:44 (18:44 UTC)

Pronòstic

L'informe es va fer fa 4 hores i 31 minuts, a les 14:13 UTC
Pronòstic vàlid del 18 a les 18 UTC al 19 a les 18 UTC
Vent 6 kt del Nord/Nord-Est
Visibilitat: 3500 m
Núvols disperses a una alçada de 5000 ft
boirina
Temporalment
l' 18 a les 20 UTC al 19 a les 02 UTC
Escasses núvols a una alçada de 3000 ft, Cumulonimbus.
Núvols disperses a una alçada de 3000 ft
xàfecs de pluja

TAF: ZUUU 181413Z 1818/1918 02003MPS 3500 BR SCT050 TX26/1907Z TN19/1823Z TEMPO 1820/1902 -SHRA FEW030CB SCT030

Observacions i pronòstics meteorològics de més de 4000 aeroports (METAR i TAF).

Les estacions disponibles són els punts grocs i vermells al mapa.

Posi el ratolí al punt desitjat per veure el nom de l'estació.

Feu clic per veure les observacions i els pronòstics meteorològics.

Per canviar el mapa: feu clic els botons verds amb una creu de color negre per apropar; al botó verd amb un guió per allunyar la imatge; o en les fletxes verdes per a mapes adjacents.


METAR-TAF: